sensor_id;sensor_type;location;lat;lon;timestamp;temperature;humidity
578;DHT22;275;48.492;9.214;2022-10-18T00:01:53;18.40;39.70
578;DHT22;275;48.492;9.214;2022-10-18T00:04:20;18.60;39.50
578;DHT22;275;48.492;9.214;2022-10-18T00:06:48;18.50;39.90
578;DHT22;275;48.492;9.214;2022-10-18T00:09:15;18.40;40.80
578;DHT22;275;48.492;9.214;2022-10-18T00:11:42;18.30;41.40
578;DHT22;275;48.492;9.214;2022-10-18T00:14:09;18.10;42.10
578;DHT22;275;48.492;9.214;2022-10-18T00:16:36;18.10;42.20
578;DHT22;275;48.492;9.214;2022-10-18T00:19:03;18.10;42.20
578;DHT22;275;48.492;9.214;2022-10-18T00:21:30;18.00;42.20
578;DHT22;275;48.492;9.214;2022-10-18T00:23:58;17.80;42.90
578;DHT22;275;48.492;9.214;2022-10-18T00:26:26;17.70;43.10
578;DHT22;275;48.492;9.214;2022-10-18T00:28:55;17.80;42.90
578;DHT22;275;48.492;9.214;2022-10-18T00:31:24;17.80;42.90
578;DHT22;275;48.492;9.214;2022-10-18T00:33:53;17.80;43.00
578;DHT22;275;48.492;9.214;2022-10-18T00:36:21;17.70;43.70
578;DHT22;275;48.492;9.214;2022-10-18T00:38:48;17.70;43.70
578;DHT22;275;48.492;9.214;2022-10-18T00:41:18;17.70;43.40
578;DHT22;275;48.492;9.214;2022-10-18T00:43:56;17.80;43.20
578;DHT22;275;48.492;9.214;2022-10-18T00:46:25;17.60;43.60
578;DHT22;275;48.492;9.214;2022-10-18T00:48:55;17.40;43.60
578;DHT22;275;48.492;9.214;2022-10-18T00:51:24;17.30;44.00
578;DHT22;275;48.492;9.214;2022-10-18T00:53:52;17.40;43.60
578;DHT22;275;48.492;9.214;2022-10-18T00:56:20;17.50;43.40
578;DHT22;275;48.492;9.214;2022-10-18T00:58:48;17.40;43.40
578;DHT22;275;48.492;9.214;2022-10-18T01:01:16;17.30;43.50
578;DHT22;275;48.492;9.214;2022-10-18T01:03:43;17.40;43.40
578;DHT22;275;48.492;9.214;2022-10-18T01:06:10;17.40;43.50
578;DHT22;275;48.492;9.214;2022-10-18T01:08:44;17.20;43.50
578;DHT22;275;48.492;9.214;2022-10-18T01:11:35;17.20;43.60
578;DHT22;275;48.492;9.214;2022-10-18T01:14:12;17.10;44.30
578;DHT22;275;48.492;9.214;2022-10-18T01:16:45;17.20;44.20
578;DHT22;275;48.492;9.214;2022-10-18T01:19:39;17.20;44.20
578;DHT22;275;48.492;9.214;2022-10-18T01:22:11;17.30;43.90
578;DHT22;275;48.492;9.214;2022-10-18T01:25:00;17.50;43.70
578;DHT22;275;48.492;9.214;2022-10-18T01:27:45;17.60;43.30
578;DHT22;275;48.492;9.214;2022-10-18T01:30:39;17.40;43.40
578;DHT22;275;48.492;9.214;2022-10-18T01:33:17;17.50;43.20
578;DHT22;275;48.492;9.214;2022-10-18T01:35:49;17.70;42.40
578;DHT22;275;48.492;9.214;2022-10-18T01:38:18;17.90;41.90
578;DHT22;275;48.492;9.214;2022-10-18T01:40:47;17.90;41.90
578;DHT22;275;48.492;9.214;2022-10-18T01:43:15;18.10;41.90
578;DHT22;275;48.492;9.214;2022-10-18T01:45:44;18.20;41.70
578;DHT22;275;48.492;9.214;2022-10-18T01:48:13;18.20;41.30
578;DHT22;275;48.492;9.214;2022-10-18T01:50:40;18.40;41.00
578;DHT22;275;48.492;9.214;2022-10-18T01:53:24;18.20;41.40
578;DHT22;275;48.492;9.214;2022-10-18T01:56:01;17.90;42.00
578;DHT22;275;48.492;9.214;2022-10-18T01:58:37;17.90;42.00
578;DHT22;275;48.492;9.214;2022-10-18T02:01:14;17.90;42.10
578;DHT22;275;48.492;9.214;2022-10-18T02:03:45;18.00;41.90
578;DHT22;275;48.492;9.214;2022-10-18T02:06:19;18.00;41.90
578;DHT22;275;48.492;9.214;2022-10-18T02:08:50;17.90;42.40
578;DHT22;275;48.492;9.214;2022-10-18T02:11:19;18.10;42.10
578;DHT22;275;48.492;9.214;2022-10-18T02:13:48;18.20;41.60
578;DHT22;275;48.492;9.214;2022-10-18T02:16:19;18.30;41.50
578;DHT22;275;48.492;9.214;2022-10-18T02:18:51;18.30;41.60
578;DHT22;275;48.492;9.214;2022-10-18T02:21:20;18.10;41.80
578;DHT22;275;48.492;9.214;2022-10-18T02:23:48;18.20;41.70
578;DHT22;275;48.492;9.214;2022-10-18T02:26:15;18.40;41.30
578;DHT22;275;48.492;9.214;2022-10-18T02:28:42;18.30;41.30
578;DHT22;275;48.492;9.214;2022-10-18T02:31:13;18.40;40.90
578;DHT22;275;48.492;9.214;2022-10-18T02:33:46;18.60;40.80
578;DHT22;275;48.492;9.214;2022-10-18T02:36:21;18.70;40.80
578;DHT22;275;48.492;9.214;2022-10-18T02:38:52;18.60;41.30
578;DHT22;275;48.492;9.214;2022-10-18T02:41:24;18.20;41.50
578;DHT22;275;48.492;9.214;2022-10-18T02:43:52;18.20;41.60
578;DHT22;275;48.492;9.214;2022-10-18T02:46:19;18.10;41.70
578;DHT22;275;48.492;9.214;2022-10-18T02:48:48;18.00;41.90
578;DHT22;275;48.492;9.214;2022-10-18T02:51:15;18.00;41.80
578;DHT22;275;48.492;9.214;2022-10-18T02:53:42;17.80;42.50
578;DHT22;275;48.492;9.214;2022-10-18T02:56:08;17.30;43.50
578;DHT22;275;48.492;9.214;2022-10-18T02:58:35;16.90;45.30
578;DHT22;275;48.492;9.214;2022-10-18T03:01:02;16.80;46.50
578;DHT22;275;48.492;9.214;2022-10-18T03:03:29;17.20;45.10
578;DHT22;275;48.492;9.214;2022-10-18T03:05:57;17.00;45.40
578;DHT22;275;48.492;9.214;2022-10-18T03:08:24;16.60;47.00
578;DHT22;275;48.492;9.214;2022-10-18T03:10:51;16.70;47.00
578;DHT22;275;48.492;9.214;2022-10-18T03:13:17;16.60;47.30
578;DHT22;275;48.492;9.214;2022-10-18T03:15:45;16.90;46.90
578;DHT22;275;48.492;9.214;2022-10-18T03:18:12;16.80;47.00
578;DHT22;275;48.492;9.214;2022-10-18T03:20:39;16.70;47.70
578;DHT22;275;48.492;9.214;2022-10-18T03:23:07;16.30;49.10
578;DHT22;275;48.492;9.214;2022-10-18T03:25:34;16.40;48.60
578;DHT22;275;48.492;9.214;2022-10-18T03:28:01;16.90;47.30
578;DHT22;275;48.492;9.214;2022-10-18T03:30:27;17.40;45.80
578;DHT22;275;48.492;9.214;2022-10-18T03:32:54;17.60;44.80
578;DHT22;275;48.492;9.214;2022-10-18T03:35:21;17.70;44.60
578;DHT22;275;48.492;9.214;2022-10-18T03:37:48;18.00;43.80
578;DHT22;275;48.492;9.214;2022-10-18T03:40:16;18.20;43.00
578;DHT22;275;48.492;9.214;2022-10-18T03:42:43;18.30;42.50
578;DHT22;275;48.492;9.214;2022-10-18T03:45:10;18.50;42.20
578;DHT22;275;48.492;9.214;2022-10-18T03:47:37;18.40;42.50
578;DHT22;275;48.492;9.214;2022-10-18T03:50:04;18.60;42.00
578;DHT22;275;48.492;9.214;2022-10-18T03:52:31;18.60;41.80
578;DHT22;275;48.492;9.214;2022-10-18T03:54:58;18.70;41.50
578;DHT22;275;48.492;9.214;2022-10-18T03:57:26;18.70;41.20
578;DHT22;275;48.492;9.214;2022-10-18T03:59:53;18.70;40.50
578;DHT22;275;48.492;9.214;2022-10-18T04:02:19;18.70;40.90
578;DHT22;275;48.492;9.214;2022-10-18T04:04:46;18.70;40.40
578;DHT22;275;48.492;9.214;2022-10-18T04:07:14;18.50;40.70
578;DHT22;275;48.492;9.214;2022-10-18T04:09:40;18.20;41.50
578;DHT22;275;48.492;9.214;2022-10-18T04:12:07;17.90;43.00
578;DHT22;275;48.492;9.214;2022-10-18T04:14:35;18.20;42.30
578;DHT22;275;48.492;9.214;2022-10-18T04:17:02;18.50;41.50
578;DHT22;275;48.492;9.214;2022-10-18T04:19:29;18.60;41.10
578;DHT22;275;48.492;9.214;2022-10-18T04:21:56;18.30;42.40
578;DHT22;275;48.492;9.214;2022-10-18T04:24:23;18.50;42.00
578;DHT22;275;48.492;9.214;2022-10-18T04:26:50;18.50;42.30
578;DHT22;275;48.492;9.214;2022-10-18T04:29:17;18.10;43.20
578;DHT22;275;48.492;9.214;2022-10-18T04:31:45;17.90;44.00
578;DHT22;275;48.492;9.214;2022-10-18T04:34:12;17.60;45.10
578;DHT22;275;48.492;9.214;2022-10-18T04:36:39;17.70;44.70
578;DHT22;275;48.492;9.214;2022-10-18T04:39:06;18.10;44.00
578;DHT22;275;48.492;9.214;2022-10-18T04:41:33;18.10;44.00
578;DHT22;275;48.492;9.214;2022-10-18T04:43:59;18.20;43.50
578;DHT22;275;48.492;9.214;2022-10-18T04:46:26;18.30;43.00
578;DHT22;275;48.492;9.214;2022-10-18T04:48:54;18.40;42.80
578;DHT22;275;48.492;9.214;2022-10-18T04:51:21;18.40;43.10
578;DHT22;275;48.492;9.214;2022-10-18T04:53:48;18.50;42.60
578;DHT22;275;48.492;9.214;2022-10-18T04:56:15;18.20;43.50
578;DHT22;275;48.492;9.214;2022-10-18T04:58:42;18.00;44.10
578;DHT22;275;48.492;9.214;2022-10-18T05:01:08;18.00;44.70
578;DHT22;275;48.492;9.214;2022-10-18T05:03:35;18.20;43.40
578;DHT22;275;48.492;9.214;2022-10-18T05:06:04;18.20;43.80
578;DHT22;275;48.492;9.214;2022-10-18T05:08:32;18.30;43.50
578;DHT22;275;48.492;9.214;2022-10-18T05:10:59;18.20;43.40
578;DHT22;275;48.492;9.214;2022-10-18T05:13:26;18.10;43.80
578;DHT22;275;48.492;9.214;2022-10-18T05:15:53;18.20;43.80
578;DHT22;275;48.492;9.214;2022-10-18T05:18:20;18.20;43.50
578;DHT22;275;48.492;9.214;2022-10-18T05:20:47;18.10;43.50
578;DHT22;275;48.492;9.214;2022-10-18T05:23:15;17.70;44.30
578;DHT22;275;48.492;9.214;2022-10-18T05:25:42;17.70;44.60
578;DHT22;275;48.492;9.214;2022-10-18T05:28:09;17.70;44.60
578;DHT22;275;48.492;9.214;2022-10-18T05:30:36;17.20;46.10
578;DHT22;275;48.492;9.214;2022-10-18T05:33:03;16.80;47.50
578;DHT22;275;48.492;9.214;2022-10-18T05:35:30;17.00;47.00
578;DHT22;275;48.492;9.214;2022-10-18T05:37:57;17.00;47.00
578;DHT22;275;48.492;9.214;2022-10-18T05:40:25;17.10;46.90
578;DHT22;275;48.492;9.214;2022-10-18T05:42:52;17.20;46.80
578;DHT22;275;48.492;9.214;2022-10-18T05:45:19;17.30;46.40
578;DHT22;275;48.492;9.214;2022-10-18T05:47:46;17.30;46.60
578;DHT22;275;48.492;9.214;2022-10-18T05:50:13;17.40;46.10
578;DHT22;275;48.492;9.214;2022-10-18T05:52:39;17.60;45.70
578;DHT22;275;48.492;9.214;2022-10-18T05:55:07;17.80;45.10
578;DHT22;275;48.492;9.214;2022-10-18T05:57:35;17.80;45.10
578;DHT22;275;48.492;9.214;2022-10-18T06:00:03;17.60;45.30
578;DHT22;275;48.492;9.214;2022-10-18T06:02:30;17.60;45.60
578;DHT22;275;48.492;9.214;2022-10-18T06:04:57;18.00;44.40
578;DHT22;275;48.492;9.214;2022-10-18T06:07:23;18.10;44.30
578;DHT22;275;48.492;9.214;2022-10-18T06:09:50;17.60;45.40
578;DHT22;275;48.492;9.214;2022-10-18T06:12:17;17.30;46.60
578;DHT22;275;48.492;9.214;2022-10-18T06:14:45;17.60;46.00
578;DHT22;275;48.492;9.214;2022-10-18T06:17:13;17.90;44.90
578;DHT22;275;48.492;9.214;2022-10-18T06:19:40;18.20;44.30
578;DHT22;275;48.492;9.214;2022-10-18T06:22:08;18.00;44.70
578;DHT22;275;48.492;9.214;2022-10-18T06:24:35;17.90;44.80
578;DHT22;275;48.492;9.214;2022-10-18T06:27:02;18.00;44.90
578;DHT22;275;48.492;9.214;2022-10-18T06:29:33;18.00;45.00
578;DHT22;275;48.492;9.214;2022-10-18T06:32:01;18.00;45.00
578;DHT22;275;48.492;9.214;2022-10-18T06:34:28;17.90;45.80
578;DHT22;275;48.492;9.214;2022-10-18T06:36:55;17.80;46.60
578;DHT22;275;48.492;9.214;2022-10-18T06:39:22;18.30;44.80
578;DHT22;275;48.492;9.214;2022-10-18T06:41:49;18.70;43.90
578;DHT22;275;48.492;9.214;2022-10-18T06:44:16;19.20;42.80
578;DHT22;275;48.492;9.214;2022-10-18T06:46:44;19.40;42.10
578;DHT22;275;48.492;9.214;2022-10-18T06:49:13;19.30;42.60
578;DHT22;275;48.492;9.214;2022-10-18T06:51:40;19.30;42.30
578;DHT22;275;48.492;9.214;2022-10-18T06:54:08;19.50;42.70
578;DHT22;275;48.492;9.214;2022-10-18T06:56:35;19.50;41.80
578;DHT22;275;48.492;9.214;2022-10-18T06:59:02;19.20;42.30
578;DHT22;275;48.492;9.214;2022-10-18T07:01:29;18.80;43.70
578;DHT22;275;48.492;9.214;2022-10-18T07:03:55;19.00;43.10
578;DHT22;275;48.492;9.214;2022-10-18T07:06:24;19.60;41.40
578;DHT22;275;48.492;9.214;2022-10-18T07:08:51;20.10;40.30
578;DHT22;275;48.492;9.214;2022-10-18T07:11:20;20.30;39.40
578;DHT22;275;48.492;9.214;2022-10-18T07:13:48;20.00;40.20
578;DHT22;275;48.492;9.214;2022-10-18T07:16:16;20.10;40.00
578;DHT22;275;48.492;9.214;2022-10-18T07:18:44;20.40;40.00
578;DHT22;275;48.492;9.214;2022-10-18T07:21:13;20.60;39.20
578;DHT22;275;48.492;9.214;2022-10-18T07:23:43;20.80;38.90
578;DHT22;275;48.492;9.214;2022-10-18T07:26:12;21.00;38.50
578;DHT22;275;48.492;9.214;2022-10-18T07:28:40;21.00;38.50
578;DHT22;275;48.492;9.214;2022-10-18T07:31:08;20.50;38.80
578;DHT22;275;48.492;9.214;2022-10-18T07:33:35;20.30;39.80
578;DHT22;275;48.492;9.214;2022-10-18T07:36:04;20.50;39.50
578;DHT22;275;48.492;9.214;2022-10-18T07:38:32;20.50;40.40
578;DHT22;275;48.492;9.214;2022-10-18T07:41:01;20.50;39.80
578;DHT22;275;48.492;9.214;2022-10-18T07:43:29;20.90;39.20
578;DHT22;275;48.492;9.214;2022-10-18T07:45:58;21.20;38.60
578;DHT22;275;48.492;9.214;2022-10-18T07:48:25;21.30;37.80
578;DHT22;275;48.492;9.214;2022-10-18T07:50:53;21.50;37.60
578;DHT22;275;48.492;9.214;2022-10-18T07:53:19;21.70;37.10
578;DHT22;275;48.492;9.214;2022-10-18T07:55:46;21.60;37.10
578;DHT22;275;48.492;9.214;2022-10-18T07:58:14;21.60;37.10
578;DHT22;275;48.492;9.214;2022-10-18T08:00:41;21.90;36.40
578;DHT22;275;48.492;9.214;2022-10-18T08:03:08;22.00;35.90
578;DHT22;275;48.492;9.214;2022-10-18T08:05:35;21.70;35.80
578;DHT22;275;48.492;9.214;2022-10-18T08:08:02;21.70;35.80
578;DHT22;275;48.492;9.214;2022-10-18T08:10:28;22.00;35.40
578;DHT22;275;48.492;9.214;2022-10-18T08:12:55;22.40;34.20
578;DHT22;275;48.492;9.214;2022-10-18T08:15:23;22.70;33.80
578;DHT22;275;48.492;9.214;2022-10-18T08:17:50;22.40;34.70
578;DHT22;275;48.492;9.214;2022-10-18T08:20:17;21.70;36.40
578;DHT22;275;48.492;9.214;2022-10-18T08:22:44;21.30;37.30
578;DHT22;275;48.492;9.214;2022-10-18T08:25:11;21.70;36.70
578;DHT22;275;48.492;9.214;2022-10-18T08:27:37;22.20;36.00
578;DHT22;275;48.492;9.214;2022-10-18T08:30:05;22.80;35.10
578;DHT22;275;48.492;9.214;2022-10-18T08:32:35;23.30;34.20
578;DHT22;275;48.492;9.214;2022-10-18T08:35:02;23.70;33.30
578;DHT22;275;48.492;9.214;2022-10-18T08:37:29;24.20;32.50
578;DHT22;275;48.492;9.214;2022-10-18T08:39:55;24.20;32.60
578;DHT22;275;48.492;9.214;2022-10-18T08:42:45;24.00;32.80
578;DHT22;275;48.492;9.214;2022-10-18T08:45:17;24.20;32.20
578;DHT22;275;48.492;9.214;2022-10-18T08:47:47;24.20;32.30
578;DHT22;275;48.492;9.214;2022-10-18T08:50:18;24.20;32.50
578;DHT22;275;48.492;9.214;2022-10-18T08:52:50;24.00;32.80
578;DHT22;275;48.492;9.214;2022-10-18T08:55:21;24.00;32.90
578;DHT22;275;48.492;9.214;2022-10-18T08:57:50;24.30;32.50
578;DHT22;275;48.492;9.214;2022-10-18T09:00:18;24.30;32.50
578;DHT22;275;48.492;9.214;2022-10-18T09:03:01;24.50;32.50
578;DHT22;275;48.492;9.214;2022-10-18T09:05:39;24.40;32.50
578;DHT22;275;48.492;9.214;2022-10-18T09:11:22;24.60;32.10
578;DHT22;275;48.492;9.214;2022-10-18T09:14:08;24.70;32.10
578;DHT22;275;48.492;9.214;2022-10-18T09:16:47;24.30;32.90
578;DHT22;275;48.492;9.214;2022-10-18T09:19:24;24.40;32.80
578;DHT22;275;48.492;9.214;2022-10-18T09:21:58;24.50;32.60
578;DHT22;275;48.492;9.214;2022-10-18T09:24:30;24.90;31.90
578;DHT22;275;48.492;9.214;2022-10-18T09:27:03;25.60;30.90
578;DHT22;275;48.492;9.214;2022-10-18T09:29:41;25.70;30.60
578;DHT22;275;48.492;9.214;2022-10-18T09:32:23;25.90;30.20
578;DHT22;275;48.492;9.214;2022-10-18T09:34:55;26.30;29.90
578;DHT22;275;48.492;9.214;2022-10-18T09:37:24;26.40;29.70
578;DHT22;275;48.492;9.214;2022-10-18T09:39:59;26.40;29.70
578;DHT22;275;48.492;9.214;2022-10-18T09:42:33;26.30;29.90
578;DHT22;275;48.492;9.214;2022-10-18T09:45:03;26.10;30.20
578;DHT22;275;48.492;9.214;2022-10-18T09:47:35;25.90;30.50
578;DHT22;275;48.492;9.214;2022-10-18T09:50:14;25.80;30.80
578;DHT22;275;48.492;9.214;2022-10-18T09:52:47;25.40;31.80
578;DHT22;275;48.492;9.214;2022-10-18T09:55:19;25.80;31.10
578;DHT22;275;48.492;9.214;2022-10-18T09:57:50;25.70;31.30
578;DHT22;275;48.492;9.214;2022-10-18T10:00:23;25.60;31.40
578;DHT22;275;48.492;9.214;2022-10-18T10:02:50;25.10;32.70
578;DHT22;275;48.492;9.214;2022-10-18T10:05:19;25.20;32.80
578;DHT22;275;48.492;9.214;2022-10-18T10:07:47;24.80;33.60
578;DHT22;275;48.492;9.214;2022-10-18T10:10:19;24.10;35.40
578;DHT22;275;48.492;9.214;2022-10-18T10:12:47;24.10;35.30
578;DHT22;275;48.492;9.214;2022-10-18T10:15:19;24.30;34.60
578;DHT22;275;48.492;9.214;2022-10-18T10:17:55;23.90;34.80
578;DHT22;275;48.492;9.214;2022-10-18T10:20:34;24.50;33.90
578;DHT22;275;48.492;9.214;2022-10-18T10:23:08;24.30;34.50
578;DHT22;275;48.492;9.214;2022-10-18T10:25:36;24.80;33.60
578;DHT22;275;48.492;9.214;2022-10-18T10:28:06;25.10;33.00
578;DHT22;275;48.492;9.214;2022-10-18T10:30:37;25.20;32.60
578;DHT22;275;48.492;9.214;2022-10-18T10:33:05;25.20;32.60
578;DHT22;275;48.492;9.214;2022-10-18T10:35:34;25.70;31.80
578;DHT22;275;48.492;9.214;2022-10-18T10:38:03;26.00;31.20
578;DHT22;275;48.492;9.214;2022-10-18T10:40:30;25.90;31.30
578;DHT22;275;48.492;9.214;2022-10-18T10:43:04;26.00;30.80
578;DHT22;275;48.492;9.214;2022-10-18T10:45:35;26.30;30.30
578;DHT22;275;48.492;9.214;2022-10-18T10:48:06;26.60;29.80
578;DHT22;275;48.492;9.214;2022-10-18T10:50:50;26.70;29.90
578;DHT22;275;48.492;9.214;2022-10-18T10:53:27;27.30;29.00
578;DHT22;275;48.492;9.214;2022-10-18T10:55:56;27.50;28.60
578;DHT22;275;48.492;9.214;2022-10-18T10:58:25;27.50;28.40
578;DHT22;275;48.492;9.214;2022-10-18T11:00:55;27.20;28.80
578;DHT22;275;48.492;9.214;2022-10-18T11:03:22;27.10;29.20
578;DHT22;275;48.492;9.214;2022-10-18T11:05:52;26.70;29.40
578;DHT22;275;48.492;9.214;2022-10-18T11:08:22;25.70;31.40
578;DHT22;275;48.492;9.214;2022-10-18T11:10:59;26.50;30.00
578;DHT22;275;48.492;9.214;2022-10-18T11:13:38;26.40;29.90
578;DHT22;275;48.492;9.214;2022-10-18T11:16:13;26.50;29.70
578;DHT22;275;48.492;9.214;2022-10-18T11:18:45;26.90;28.50
578;DHT22;275;48.492;9.214;2022-10-18T11:21:17;26.40;29.20
578;DHT22;275;48.492;9.214;2022-10-18T11:23:45;26.50;29.10
578;DHT22;275;48.492;9.214;2022-10-18T11:26:45;26.50;28.90
578;DHT22;275;48.492;9.214;2022-10-18T11:29:37;26.60;28.60
578;DHT22;275;48.492;9.214;2022-10-18T11:32:12;24.50;32.10
578;DHT22;275;48.492;9.214;2022-10-18T11:34:51;24.30;33.10
578;DHT22;275;48.492;9.214;2022-10-18T11:37:39;25.10;31.50
578;DHT22;275;48.492;9.214;2022-10-18T11:40:22;25.70;29.90
578;DHT22;275;48.492;9.214;2022-10-18T11:42:57;25.30;30.70
578;DHT22;275;48.492;9.214;2022-10-18T11:45:34;25.10;30.80
578;DHT22;275;48.492;9.214;2022-10-18T11:48:24;24.80;31.60
578;DHT22;275;48.492;9.214;2022-10-18T11:51:00;24.70;32.00
578;DHT22;275;48.492;9.214;2022-10-18T11:53:35;25.00;31.40
578;DHT22;275;48.492;9.214;2022-10-18T11:56:11;25.20;31.00
578;DHT22;275;48.492;9.214;2022-10-18T11:58:53;25.50;30.60
578;DHT22;275;48.492;9.214;2022-10-18T12:01:27;25.30;30.70
578;DHT22;275;48.492;9.214;2022-10-18T12:04:01;25.10;31.10
578;DHT22;275;48.492;9.214;2022-10-18T12:06:34;25.40;30.20
578;DHT22;275;48.492;9.214;2022-10-18T12:09:06;25.40;30.30
578;DHT22;275;48.492;9.214;2022-10-18T12:11:39;25.90;29.70
578;DHT22;275;48.492;9.214;2022-10-18T12:14:15;26.40;28.70
578;DHT22;275;48.492;9.214;2022-10-18T12:16:43;27.20;27.90
578;DHT22;275;48.492;9.214;2022-10-18T12:19:15;29.80;25.00
578;DHT22;275;48.492;9.214;2022-10-18T12:21:44;32.10;21.70
578;DHT22;275;48.492;9.214;2022-10-18T12:24:15;33.90;19.60
578;DHT22;275;48.492;9.214;2022-10-18T12:26:46;34.00;19.20
578;DHT22;275;48.492;9.214;2022-10-18T12:29:20;35.80;17.50
578;DHT22;275;48.492;9.214;2022-10-18T12:31:52;36.40;16.60
578;DHT22;275;48.492;9.214;2022-10-18T12:34:33;38.00;14.60
578;DHT22;275;48.492;9.214;2022-10-18T12:37:24;36.10;15.40
578;DHT22;275;48.492;9.214;2022-10-18T12:39:57;33.40;17.90
578;DHT22;275;48.492;9.214;2022-10-18T12:42:27;31.60;20.00
578;DHT22;275;48.492;9.214;2022-10-18T12:45:02;30.30;21.80
578;DHT22;275;48.492;9.214;2022-10-18T12:47:30;30.90;21.00
578;DHT22;275;48.492;9.214;2022-10-18T12:49:58;30.50;21.30
578;DHT22;275;48.492;9.214;2022-10-18T12:52:27;29.40;22.70
578;DHT22;275;48.492;9.214;2022-10-18T12:55:06;30.50;21.60
578;DHT22;275;48.492;9.214;2022-10-18T13:01:04;31.10;20.60
578;DHT22;275;48.492;9.214;2022-10-18T13:03:52;28.70;23.40
578;DHT22;275;48.492;9.214;2022-10-18T13:06:19;29.20;23.30
578;DHT22;275;48.492;9.214;2022-10-18T13:08:46;29.10;23.20
578;DHT22;275;48.492;9.214;2022-10-18T13:11:38;28.90;23.50
578;DHT22;275;48.492;9.214;2022-10-18T13:14:18;28.80;24.00
578;DHT22;275;48.492;9.214;2022-10-18T13:16:52;29.50;23.20
578;DHT22;275;48.492;9.214;2022-10-18T13:19:25;32.10;20.40
578;DHT22;275;48.492;9.214;2022-10-18T13:22:09;33.30;18.40
578;DHT22;275;48.492;9.214;2022-10-18T13:24:40;33.70;17.40
578;DHT22;275;48.492;9.214;2022-10-18T13:27:26;32.80;18.40
578;DHT22;275;48.492;9.214;2022-10-18T13:30:18;31.60;19.40
578;DHT22;275;48.492;9.214;2022-10-18T13:32:53;31.40;19.80
578;DHT22;275;48.492;9.214;2022-10-18T13:35:44;31.80;19.60
578;DHT22;275;48.492;9.214;2022-10-18T13:38:36;30.20;20.70
578;DHT22;275;48.492;9.214;2022-10-18T13:41:05;29.10;22.20
578;DHT22;275;48.492;9.214;2022-10-18T13:43:58;28.50;23.30
578;DHT22;275;48.492;9.214;2022-10-18T13:49:32;27.30;24.80
578;DHT22;275;48.492;9.214;2022-10-18T13:52:05;27.00;25.20
578;DHT22;275;48.492;9.214;2022-10-18T13:54:49;26.80;27.40
578;DHT22;275;48.492;9.214;2022-10-18T13:57:38;25.80;30.20
578;DHT22;275;48.492;9.214;2022-10-18T14:00:42;25.50;31.20
578;DHT22;275;48.492;9.214;2022-10-18T14:03:28;25.30;31.20
578;DHT22;275;48.492;9.214;2022-10-18T14:06:03;24.90;32.40
578;DHT22;275;48.492;9.214;2022-10-18T14:08:34;25.20;31.90
578;DHT22;275;48.492;9.214;2022-10-18T14:11:05;24.30;34.00
578;DHT22;275;48.492;9.214;2022-10-18T14:13:42;24.30;34.10
578;DHT22;275;48.492;9.214;2022-10-18T14:16:29;24.70;33.20
578;DHT22;275;48.492;9.214;2022-10-18T14:19:05;25.00;32.80
578;DHT22;275;48.492;9.214;2022-10-18T14:21:37;25.50;31.50
578;DHT22;275;48.492;9.214;2022-10-18T14:24:16;25.40;31.40
578;DHT22;275;48.492;9.214;2022-10-18T14:26:45;24.80;32.90
578;DHT22;275;48.492;9.214;2022-10-18T14:29:17;24.00;34.40
578;DHT22;275;48.492;9.214;2022-10-18T14:31:52;23.90;34.80
578;DHT22;275;48.492;9.214;2022-10-18T14:34:20;23.90;34.50
578;DHT22;275;48.492;9.214;2022-10-18T14:36:48;23.90;34.50
578;DHT22;275;48.492;9.214;2022-10-18T14:39:18;24.20;34.70
578;DHT22;275;48.492;9.214;2022-10-18T14:41:50;24.20;33.90
578;DHT22;275;48.492;9.214;2022-10-18T14:44:18;24.40;33.60
578;DHT22;275;48.492;9.214;2022-10-18T14:46:51;24.50;33.10
578;DHT22;275;48.492;9.214;2022-10-18T14:49:19;24.70;33.00
578;DHT22;275;48.492;9.214;2022-10-18T14:51:49;24.90;32.90
578;DHT22;275;48.492;9.214;2022-10-18T14:54:19;25.20;31.80
578;DHT22;275;48.492;9.214;2022-10-18T15:02:44;24.80;32.90
578;DHT22;275;48.492;9.214;2022-10-18T15:05:18;25.00;33.00
578;DHT22;275;48.492;9.214;2022-10-18T15:07:45;24.10;35.40
578;DHT22;275;48.492;9.214;2022-10-18T15:10:15;24.10;35.30
578;DHT22;275;48.492;9.214;2022-10-18T15:12:43;24.40;35.10
578;DHT22;275;48.492;9.214;2022-10-18T15:15:17;23.90;36.00
578;DHT22;275;48.492;9.214;2022-10-18T15:17:47;23.90;36.30
578;DHT22;275;48.492;9.214;2022-10-18T15:20:20;23.60;37.70
578;DHT22;275;48.492;9.214;2022-10-18T15:22:47;23.90;36.40
578;DHT22;275;48.492;9.214;2022-10-18T15:25:16;23.60;37.10
578;DHT22;275;48.492;9.214;2022-10-18T15:27:45;23.60;37.20
578;DHT22;275;48.492;9.214;2022-10-18T15:30:23;23.90;36.60
578;DHT22;275;48.492;9.214;2022-10-18T15:32:54;23.70;37.00
578;DHT22;275;48.492;9.214;2022-10-18T15:35:24;23.90;36.50
578;DHT22;275;48.492;9.214;2022-10-18T15:37:52;24.00;35.80
578;DHT22;275;48.492;9.214;2022-10-18T15:40:31;24.00;35.90
578;DHT22;275;48.492;9.214;2022-10-18T15:43:00;24.20;35.00
578;DHT22;275;48.492;9.214;2022-10-18T15:45:33;23.70;36.30
578;DHT22;275;48.492;9.214;2022-10-18T15:48:17;23.60;36.70
578;DHT22;275;48.492;9.214;2022-10-18T15:50:46;24.00;35.80
578;DHT22;275;48.492;9.214;2022-10-18T15:53:30;24.50;34.50
578;DHT22;275;48.492;9.214;2022-10-18T15:55:58;24.80;34.00
578;DHT22;275;48.492;9.214;2022-10-18T15:58:27;24.50;34.70
578;DHT22;275;48.492;9.214;2022-10-18T16:00:58;24.20;35.50
578;DHT22;275;48.492;9.214;2022-10-18T16:03:27;24.30;35.70
578;DHT22;275;48.492;9.214;2022-10-18T16:05:57;24.00;36.10
578;DHT22;275;48.492;9.214;2022-10-18T16:08:26;23.90;36.50
578;DHT22;275;48.492;9.214;2022-10-18T16:10:55;23.50;37.50
578;DHT22;275;48.492;9.214;2022-10-18T16:13:23;23.30;38.20
578;DHT22;275;48.492;9.214;2022-10-18T16:15:50;23.40;38.30
578;DHT22;275;48.492;9.214;2022-10-18T16:18:18;23.30;38.40
578;DHT22;275;48.492;9.214;2022-10-18T16:20:47;23.30;38.60
578;DHT22;275;48.492;9.214;2022-10-18T16:23:19;22.70;39.90
578;DHT22;275;48.492;9.214;2022-10-18T16:25:47;22.00;41.90
578;DHT22;275;48.492;9.214;2022-10-18T16:28:16;22.00;41.90
578;DHT22;275;48.492;9.214;2022-10-18T16:30:45;22.10;41.40
578;DHT22;275;48.492;9.214;2022-10-18T16:33:12;22.10;41.80
578;DHT22;275;48.492;9.214;2022-10-18T16:35:42;21.80;42.60
578;DHT22;275;48.492;9.214;2022-10-18T16:38:20;22.10;42.00
578;DHT22;275;48.492;9.214;2022-10-18T16:40:47;21.80;42.70
578;DHT22;275;48.492;9.214;2022-10-18T16:43:14;21.30;44.40
578;DHT22;275;48.492;9.214;2022-10-18T16:45:41;21.30;44.40
578;DHT22;275;48.492;9.214;2022-10-18T16:48:10;21.20;45.00
578;DHT22;275;48.492;9.214;2022-10-18T16:50:38;21.20;45.20
578;DHT22;275;48.492;9.214;2022-10-18T16:53:05;21.40;44.50
578;DHT22;275;48.492;9.214;2022-10-18T16:55:33;21.70;43.80
578;DHT22;275;48.492;9.214;2022-10-18T16:58:00;21.70;43.80
578;DHT22;275;48.492;9.214;2022-10-18T17:00:27;21.20;45.30
578;DHT22;275;48.492;9.214;2022-10-18T17:02:53;21.20;45.70
578;DHT22;275;48.492;9.214;2022-10-18T17:05:20;21.10;45.70
578;DHT22;275;48.492;9.214;2022-10-18T17:07:47;21.30;45.40
578;DHT22;275;48.492;9.214;2022-10-18T17:10:16;21.40;45.00
578;DHT22;275;48.492;9.214;2022-10-18T17:12:45;21.60;44.30
578;DHT22;275;48.492;9.214;2022-10-18T17:15:12;21.30;45.20